TAF LFMK
LFMK 080200Z 0803/0903 27012KT CAVOK TEMPO 0803/0806 4000 -RA BECMG 0806/0808 27017G30KT=
METAR LFMK
LFMK 080230Z AUTO 26007KT 220V290 9999 FEW016 BKN028 OVC036 08/08 Q1005 TEMPO 4000 -RA=
LFMK 080200Z AUTO 27007KT 9999 -RA SCT047/// BKN058/// OVC072/// ///TCU 08/07 Q1005=
LFMK 080130Z AUTO 23005KT 9999 DZ FEW062/// OVC096/// ///TCU 07/07 Q1005=
LFMK 080100Z AUTO 23005KT 9000 -RA FEW066/// OVC098/// ///TCU 07/07 Q1006=
LFMK 080030Z AUTO 28006KT 9999 -RA FEW036/// BKN062/// OVC074/// ///TCU 07/07 Q1006=
WC LFMK
WS LFMK
WV LFMK